Time;durP1;ratioP1;P1;durP2;ratioP2;P2;SDS_P1;SDS_P2;PMS_P1;PMS_P2;Temp;Humidity;BMP_temperature;BMP_pressure;BME280_temperature;BME280_humidity;BME280_pressure;Samples;Min_cycle;Max_cycle;Signal;HPM_P1;HPM_P2
2021/05/26 14:01:53;;;;;;;1.47;0.80;;;24.10;54.00;25.10;96847.00;;;;5007872;28;20675;-84
2021/05/26 14:04:45;;;;;;;1.37;0.63;;;24.90;51.20;22.70;96761.00;;;;5025782;28;20504;-86
2021/05/26 14:07:33;;;;;;;0.53;0.50;;;24.50;50.70;21.80;96824.00;;;;5023121;28;20230;-83
2021/05/26 14:10:24;;;;;;;0.63;0.40;;;23.90;51.10;20.50;96750.00;;;;5028525;28;20220;-86
2021/05/26 14:13:14;;;;;;;1.20;0.70;;;23.00;52.40;23.70;96754.00;;;;5030261;28;20209;-85
2021/05/26 14:16:03;;;;;;;2.00;0.80;;;22.90;53.40;25.40;96758.00;;;;5027254;28;20236;-84
2021/05/26 14:18:53;;;;;;;1.00;0.90;;;23.60;55.20;26.50;96754.00;;;;5027502;28;20544;-83
2021/05/26 14:21:41;;;;;;;5.13;0.70;;;24.60;54.40;27.30;96748.00;;;;5026904;28;20206;-86
2021/05/26 14:24:29;;;;;;;0.90;0.70;;;25.60;52.60;28.10;96756.00;;;;5022179;28;20695;-83
2021/05/26 14:27:21;;;;;;;3.83;1.00;;;26.50;51.70;27.00;96749.00;;;;5023339;28;20233;-83
2021/05/26 14:30:11;;;;;;;1.23;0.70;;;27.40;50.00;24.10;96752.00;;;;5029915;28;20234;-83
2021/05/26 14:32:59;;;;;;;1.97;0.77;;;26.90;47.70;24.40;96741.00;;;;5025309;28;20204;-83
2021/05/26 14:35:49;;;;;;;1.50;0.80;;;26.10;48.50;21.90;96720.00;;;;5031781;28;20228;-84
2021/05/26 14:38:45;;;;;;;1.40;1.20;;;25.40;48.60;24.10;96722.00;;;;5027813;28;20239;-82
2021/05/26 14:41:34;;;;;;;2.77;0.70;;;24.80;49.80;26.20;96726.00;;;;5028149;28;20194;-83
2021/05/26 14:44:22;;;;;;;0.80;0.77;;;25.20;51.70;26.30;96731.00;;;;5014866;28;20686;-82
2021/05/26 14:47:11;;;;;;;3.30;1.20;;;25.90;50.00;25.70;96727.00;;;;5027201;28;20224;-83
2021/05/26 14:49:59;;;;;;;1.83;1.20;;;26.20;49.80;24.20;96794.00;;;;5027409;28;20198;-84
2021/05/26 14:52:48;;;;;;;1.40;0.70;;;25.80;47.10;22.50;96786.00;;;;5016379;28;20208;-82
2021/05/26 14:55:37;;;;;;;1.20;0.87;;;25.20;48.40;23.80;96701.00;;;;5027623;28;20304;-83
2021/05/26 14:58:25;;;;;;;0.70;0.63;;;24.60;48.70;24.40;96746.00;;;;5026848;28;20225;-83
2021/05/26 15:01:15;;;;;;;0.93;0.60;;;24.50;49.50;23.90;96776.00;;;;5026436;28;20678;-83
2021/05/26 15:04:04;;;;;;;2.37;1.00;;;24.40;51.00;23.30;96693.00;;;;5027560;28;20248;-82
2021/05/26 15:06:53;;;;;;;0.90;0.80;;;24.10;51.00;24.50;96686.00;;;;5007738;28;20788;-82
2021/05/26 15:09:42;;;;;;;1.07;0.63;;;24.30;52.20;22.30;96678.00;;;;5007833;28;20194;-83
2021/05/26 15:12:31;;;;;;;0.83;0.70;;;24.10;50.50;21.40;96677.00;;;;5011048;28;20213;-83
2021/05/26 15:15:19;;;;;;;2.43;0.77;;;23.40;51.10;21.80;96672.00;;;;5002706;28;20761;-83
2021/05/26 15:18:09;;;;;;;0.63;0.53;;;22.90;51.70;23.00;96672.00;;;;5005535;28;20233;-82
2021/05/26 15:20:58;;;;;;;1.00;0.70;;;23.00;52.60;25.30;96682.00;;;;5006339;28;20240;-82
2021/05/26 15:23:46;;;;;;;2.80;0.80;;;23.70;53.30;26.50;96679.00;;;;5025498;28;20207;-83
2021/05/26 15:26:35;;;;;;;1.10;1.00;;;24.80;52.60;24.00;96675.00;;;;5007107;28;20698;-83
2021/05/26 15:29:24;;;;;;;1.10;0.70;;;25.30;49.70;23.00;96679.00;;;;5012001;28;20213;-83
2021/05/26 15:32:13;;;;;;;3.77;0.80;;;25.20;49.10;25.00;96684.00;;;;5007418;28;20227;-84
2021/05/26 15:35:01;;;;;;;1.90;0.80;;;25.20;49.30;26.20;96678.00;;;;5000255;28;20243;-84
2021/05/26 15:37:50;;;;;;;2.03;1.53;;;25.60;50.10;26.60;96670.00;;;;5011300;28;20235;-84
2021/05/26 15:40:39;;;;;;;9.53;1.23;;;26.20;49.40;24.50;96739.00;;;;5011948;28;20672;-83
2021/05/26 15:43:28;;;;;;;1.93;0.77;;;26.00;48.50;22.70;96661.00;;;;5003653;28;20684;-83
2021/05/26 15:46:17;;;;;;;1.53;1.10;;;25.40;48.20;25.00;96662.00;;;;5009813;28;20206;-83
2021/05/26 15:49:05;;;;;;;2.77;1.00;;;25.30;49.60;25.90;96658.00;;;;5031239;28;20207;-84
2021/05/26 15:51:53;;;;;;;1.23;0.63;;;25.50;49.70;25.80;96664.00;;;;5028449;28;20211;-84
2021/05/26 15:54:43;;;;;;;1.53;0.50;;;25.80;48.10;26.50;96669.00;;;;5011024;28;20570;-84
2021/05/26 15:57:34;;;;;;;0.93;0.70;;;26.20;48.20;27.00;96665.00;;;;5029943;28;20240;-83
2021/05/26 16:00:25;;;;;;;1.90;0.67;;;26.60;48.70;25.10;96660.00;;;;5028793;28;20277;-84
2021/05/26 16:03:14;;;;;;;2.53;0.90;;;26.70;47.20;26.20;96666.00;;;;5028367;28;20209;-83
2021/05/26 16:06:02;;;;;;;1.67;0.90;;;26.60;47.40;26.90;96685.00;;;;5010505;28;20221;-82
2021/05/26 16:08:51;;;;;;;0.80;0.70;;;26.80;47.10;26.00;96681.00;;;;5018642;28;20222;-83
2021/05/26 16:11:39;;;;;;;1.37;0.70;;;27.00;46.30;24.70;96678.00;;;;5010734;28;20203;-84
2021/05/26 16:14:27;;;;;;;2.37;1.00;;;26.70;46.40;25.40;96709.00;;;;5007096;28;20769;-84
2021/05/26 16:17:17;;;;;;;0.93;0.70;;;26.30;46.80;24.20;96702.00;;;;5021151;28;20229;-83
2021/05/26 16:20:07;;;;;;;1.53;0.80;;;25.80;47.30;23.10;96704.00;;;;5029896;28;20231;-82
2021/05/26 16:22:59;;;;;;;0.93;0.90;;;25.00;48.40;22.70;96713.00;;;;5010604;28;20214;-83
2021/05/26 16:25:48;;;;;;;1.43;0.80;;;24.30;49.70;21.80;96704.00;;;;5021081;28;20218;-82
2021/05/26 16:28:39;;;;;;;3.17;0.80;;;23.50;50.60;21.50;96709.00;;;;5010087;28;20270;-82
2021/05/26 16:31:27;;;;;;;1.93;0.60;;;22.80;51.90;20.90;96704.00;;;;5008794;28;20213;-83
2021/05/26 16:34:17;;;;;;;1.20;1.10;;;22.20;53.10;20.30;96710.00;;;;5010418;28;20194;-82
2021/05/26 16:37:06;;;;;;;1.20;0.80;;;21.60;53.20;19.70;96707.00;;;;5011391;28;20248;-84
2021/05/26 16:39:57;;;;;;;0.77;0.70;;;21.00;54.30;19.40;96709.00;;;;4999926;28;20198;-83
2021/05/26 16:42:46;;;;;;;0.83;0.70;;;20.50;55.30;19.00;96706.00;;;;5010237;28;20206;-83
2021/05/26 16:45:34;;;;;;;2.47;1.00;;;20.00;56.60;18.80;96711.00;;;;5010071;28;20218;-83
2021/05/26 16:48:23;;;;;;;1.60;1.10;;;19.60;58.00;18.70;96702.00;;;;5030121;28;20263;-82
2021/05/26 16:51:14;;;;;;;7.10;1.03;;;19.30;58.70;18.10;96697.00;;;;5018514;28;20190;-84
2021/05/26 16:54:04;;;;;;;1.10;0.67;;;19.00;61.10;18.00;96701.00;;;;5011855;28;20622;-84
2021/05/26 16:56:54;;;;;;;1.73;0.70;;;18.80;63.40;17.70;96691.00;;;;5008093;28;20232;-83
2021/05/26 16:59:42;;;;;;;1.73;1.63;;;18.60;64.80;17.50;96694.00;;;;5021021;28;20204;-83
2021/05/26 17:02:31;;;;;;;1.57;1.07;;;18.30;66.10;17.20;96702.00;;;;5020414;28;20560;-83
2021/05/26 17:05:19;;;;;;;2.10;1.23;;;18.10;68.40;17.30;96693.00;;;;5010929;28;20225;-84
2021/05/26 17:08:09;;;;;;;2.70;0.80;;;17.80;65.60;17.20;96695.00;;;;5010250;28;20225;-84
2021/05/26 17:10:57;;;;;;;1.27;0.77;;;17.80;66.90;17.00;96687.00;;;;5011781;28;20251;-82
2021/05/26 17:13:46;;;;;;;5.67;0.80;;;17.60;68.30;16.90;96690.00;;;;5020343;28;20686;-85
2021/05/26 17:16:34;;;;;;;1.17;0.73;;;17.50;69.70;16.60;96690.00;;;;5012181;28;20229;-85
2021/05/26 17:19:23;;;;;;;0.80;0.63;;;17.30;71.00;16.40;96688.00;;;;5012303;28;20228;-83
2021/05/26 17:22:11;;;;;;;1.27;0.60;;;17.20;72.20;16.20;96692.00;;;;5012811;28;20206;-83
2021/05/26 17:25:01;;;;;;;2.73;1.07;;;17.00;73.80;16.20;96681.00;;;;5027816;28;20212;-87
2021/05/26 17:28:05;;;;;;;2.03;1.23;;;16.80;75.30;16.10;96690.00;;;;5031583;28;20231;-85
2021/05/26 17:30:54;;;;;;;4.60;1.20;;;16.70;77.40;15.90;96693.00;;;;5030632;28;20582;-85
2021/05/26 17:33:47;;;;;;;8.60;1.00;;;17.10;79.40;15.70;96683.00;;;;5032395;28;20205;-87
2021/05/26 17:36:40;;;;;;;2.33;1.17;;;16.40;81.70;15.40;96679.00;;;;5033518;28;20366;-85
2021/05/26 17:39:29;;;;;;;2.53;0.80;;;16.30;83.80;15.40;96679.00;;;;5028791;28;20212;-84
2021/05/26 17:42:18;;;;;;;1.67;1.03;;;16.10;85.70;15.20;96684.00;;;;5030762;28;20589;-84
2021/05/26 17:45:09;;;;;;;2.20;0.80;;;15.90;88.40;15.10;96670.00;;;;5009812;28;20578;-86
2021/05/26 17:47:57;;;;;;;1.10;0.60;;;15.80;90.70;14.90;96675.00;;;;5008924;28;20226;-83
2021/05/26 17:50:46;;;;;;;3.67;1.00;;;15.60;91.90;14.90;96673.00;;;;5018727;28;20659;-84
2021/05/26 17:53:35;;;;;;;3.70;1.30;;;15.60;93.00;14.80;96678.00;;;;5009251;28;20209;-84
2021/05/26 17:56:24;;;;;;;1.20;1.10;;;15.50;94.10;14.80;96678.00;;;;5009613;28;20759;-84
2021/05/26 17:59:13;;;;;;;5.40;1.20;;;15.40;95.30;14.60;96683.00;;;;5028812;28;20212;-83
2021/05/26 18:02:02;;;;;;;2.13;1.07;;;15.30;96.40;14.40;96690.00;;;;5008612;28;20216;-82
2021/05/26 18:04:50;;;;;;;1.10;0.80;;;15.20;97.30;14.30;96682.00;;;;5028519;28;20241;-86
2021/05/26 18:07:39;;;;;;;4.23;1.33;;;15.00;99.50;14.10;96684.00;;;;5001409;28;20233;-84
2021/05/26 18:10:31;;;;;;;2.30;1.30;;;14.90;99.90;14.00;96692.00;;;;5027612;28;20209;-85
2021/05/26 18:13:19;;;;;;;1.90;0.93;;;14.80;99.90;14.00;96693.00;;;;5009711;28;20213;-85
2021/05/26 18:16:09;;;;;;;1.53;0.90;;;14.70;99.90;14.00;96689.00;;;;5008155;28;20228;-85
2021/05/26 18:18:58;;;;;;;2.83;1.00;;;14.60;99.90;13.80;96687.00;;;;5007559;28;20320;-84
2021/05/26 18:21:47;;;;;;;2.63;0.90;;;14.50;99.90;13.80;96684.00;;;;5009264;28;20213;-89
2021/05/26 18:24:36;;;;;;;2.50;0.93;;;14.40;99.90;13.80;96690.00;;;;5009674;28;20202;-83
2021/05/26 18:27:26;;;;;;;8.20;1.10;;;14.40;99.90;13.80;96691.00;;;;5009978;28;20221;-83
2021/05/26 18:30:20;;;;;;;1.50;1.23;;;14.30;99.90;13.40;96682.00;;;;5006298;28;20217;-84
2021/05/26 18:33:10;;;;;;;0.80;0.80;;;14.20;99.90;12.90;96685.00;;;;5027989;28;20201;-84
2021/05/26 18:35:58;;;;;;;1.20;1.03;;;14.00;99.90;12.70;96680.00;;;;5009524;28;20229;-83
2021/05/26 18:38:47;;;;;;;2.40;1.10;;;13.70;99.90;12.60;96681.00;;;;5008353;28;20234;-87
2021/05/26 18:41:35;;;;;;;1.40;1.30;;;13.50;99.90;12.40;96672.00;;;;5006701;28;20217;-83
2021/05/26 18:44:23;;;;;;;0.80;0.80;;;13.30;99.90;12.20;96690.00;;;;4998664;28;20738;-84
2021/05/26 18:47:12;;;;;;;4.47;1.30;;;13.10;99.90;12.30;96688.00;;;;5009369;28;20344;-82
2021/05/26 18:50:04;;;;;;;1.20;1.10;;;13.00;99.90;12.40;96694.00;;;;5014860;28;20689;-84
2021/05/26 18:52:53;;;;;;;1.53;1.30;;;13.00;99.90;12.40;96699.00;;;;4998665;28;20202;-84
2021/05/26 18:55:42;;;;;;;7.67;1.23;;;12.90;99.90;12.50;96693.00;;;;5010148;28;20229;-83
2021/05/26 18:58:30;;;;;;;2.87;1.47;;;12.90;99.90;12.40;96697.00;;;;5027896;28;20725;-82
2021/05/26 19:01:19;;;;;;;1.13;0.70;;;12.90;99.90;12.50;96700.00;;;;5025755;28;20212;-84
2021/05/26 19:04:07;;;;;;;4.10;1.30;;;12.90;99.90;12.50;96707.00;;;;5024506;28;20205;-84
2021/05/26 19:06:56;;;;;;;1.90;1.13;;;12.90;99.90;12.50;96711.00;;;;5028010;28;20213;-83
2021/05/26 19:09:45;;;;;;;3.13;1.00;;;13.00;99.90;12.40;96713.00;;;;5026954;28;20209;-82
2021/05/26 19:12:33;;;;;;;2.13;1.70;;;13.00;99.90;12.40;96705.00;;;;5032796;28;20217;-84
2021/05/26 19:15:22;;;;;;;2.47;1.33;;;13.00;99.90;12.40;96706.00;;;;5039982;28;20205;-84
2021/05/26 19:18:11;;;;;;;0.83;0.80;;;13.00;99.90;12.40;96715.00;;;;5012479;28;20244;-83
2021/05/26 19:20:59;;;;;;;2.03;1.50;;;12.90;99.90;12.40;96716.00;;;;5011060;28;20201;-83
2021/05/26 19:23:49;;;;;;;1.13;1.03;;;12.90;99.90;12.30;96721.00;;;;5031688;28;20264;-86
2021/05/26 19:26:37;;;;;;;3.73;1.30;;;12.80;99.90;11.60;96705.00;;;;5007469;28;20201;-83
2021/05/26 19:29:26;;;;;;;3.20;2.03;;;12.70;99.90;11.60;96706.00;;;;5028015;28;20202;-85
2021/05/26 19:32:15;;;;;;;2.60;1.57;;;12.50;99.90;11.70;96698.00;;;;5011908;28;20205;-85
2021/05/26 19:35:04;;;;;;;5.97;2.67;;;12.40;99.90;11.50;96720.00;;;;5012743;28;20201;-82
2021/05/26 19:37:52;;;;;;;2.53;1.63;;;12.30;99.90;11.20;96719.00;;;;5018764;28;20225;-83
2021/05/26 19:40:42;;;;;;;1.77;1.67;;;12.10;99.90;11.20;96732.00;;;;5032550;28;20571;-85
2021/05/26 19:43:30;;;;;;;4.43;1.87;;;12.10;99.90;11.10;96723.00;;;;5033463;28;20209;-83
2021/05/26 19:46:19;;;;;;;6.53;1.70;;;11.90;99.90;11.10;96721.00;;;;5020996;28;20203;-86
2021/05/26 19:49:07;;;;;;;9.80;1.60;;;11.80;99.90;11.10;96712.00;;;;5019154;28;20743;-84
2021/05/26 19:51:57;;;;;;;1.63;1.47;;;11.80;99.90;11.10;96717.00;;;;5031408;28;20622;-83
2021/05/26 19:54:46;;;;;;;1.30;1.20;;;11.70;99.90;11.10;96730.00;;;;5025084;28;20208;-85
2021/05/26 19:57:35;;;;;;;3.37;1.50;;;11.70;99.90;11.10;96734.00;;;;5030597;28;21029;-85
2021/05/26 20:00:25;;;;;;;2.90;1.60;;;11.70;99.90;11.10;96732.00;;;;5030789;28;20209;-84
2021/05/26 20:03:13;;;;;;;4.90;1.23;;;11.60;99.90;11.10;96741.00;;;;5030090;28;20216;-83
2021/05/26 20:06:02;;;;;;;4.93;1.10;;;11.60;99.90;11.00;96733.00;;;;5030761;28;20205;-83
2021/05/26 20:08:50;;;;;;;2.33;1.23;;;11.60;99.90;11.00;96726.00;;;;5018237;28;20233;-85
2021/05/26 20:11:39;;;;;;;1.40;1.03;;;11.60;99.90;10.90;96743.00;;;;5010817;28;20220;-85
2021/05/26 20:14:29;;;;;;;6.30;1.00;;;11.50;99.90;10.90;96744.00;;;;5009830;28;20209;-85
2021/05/26 20:17:17;;;;;;;3.03;1.10;;;11.50;99.90;10.90;96740.00;;;;5029015;28;20412;-85
2021/05/26 20:20:09;;;;;;;1.30;1.20;;;11.50;99.90;10.80;96741.00;;;;5029868;28;20201;-85
2021/05/26 20:23:00;;;;;;;3.95;1.50;;;11.40;99.90;10.70;96731.00;;;;5029307;28;20810;-85
2021/05/26 20:25:49;;;;;;;1.23;1.10;;;11.40;99.90;10.60;96729.00;;;;5011558;28;20209;-85
2021/05/26 20:28:38;;;;;;;4.00;1.90;;;11.30;99.90;10.20;96724.00;;;;5021380;28;20221;-83
2021/05/26 20:31:27;;;;;;;2.47;1.83;;;11.20;99.90;10.10;96722.00;;;;5028953;28;20194;-84
2021/05/26 20:34:16;;;;;;;1.30;1.00;;;11.00;99.90;10.20;96717.00;;;;5011327;28;20209;-83
2021/05/26 20:37:04;;;;;;;1.73;1.20;;;10.90;99.90;10.30;96719.00;;;;5010815;28;20241;-83
2021/05/26 20:39:53;;;;;;;1.40;1.13;;;10.90;99.90;10.30;96719.00;;;;5010888;28;20689;-84
2021/05/26 20:42:42;;;;;;;1.60;1.23;;;10.90;99.90;10.20;96717.00;;;;5011402;28;20333;-84
2021/05/26 20:45:31;;;;;;;1.97;1.20;;;10.90;99.90;9.80;96711.00;;;;5029134;28;20213;-83
2021/05/26 20:48:20;;;;;;;3.57;1.57;;;10.80;99.90;9.80;96718.00;;;;5028708;28;20225;-83
2021/05/26 20:51:09;;;;;;;4.50;1.30;;;10.70;99.90;9.80;96720.00;;;;5019068;28;20206;-83
2021/05/26 20:53:58;;;;;;;3.20;1.37;;;10.60;99.90;9.70;96731.00;;;;5011124;28;20703;-84
2021/05/26 20:56:46;;;;;;;6.23;1.63;;;10.50;99.90;9.70;96733.00;;;;5010235;28;20698;-84
2021/05/26 20:59:34;;;;;;;7.70;1.60;;;10.40;99.90;9.70;96734.00;;;;5009844;28;20419;-83
2021/05/26 21:02:23;;;;;;;1.40;1.30;;;10.40;99.90;9.70;96742.00;;;;5030120;28;20198;-85
2021/05/26 21:05:13;;;;;;;3.13;1.13;;;10.30;99.90;9.80;96733.00;;;;5010612;28;20210;-84
2021/05/26 21:08:02;;;;;;;1.70;1.13;;;10.30;99.90;9.80;96740.00;;;;5009692;28;20224;-84
2021/05/26 21:10:50;;;;;;;4.17;2.20;;;10.40;99.90;9.80;96744.00;;;;5011198;28;20214;-84
2021/05/26 21:13:38;;;;;;;1.43;1.23;;;10.40;99.90;9.60;96731.00;;;;5009517;28;20202;-83
2021/05/26 21:16:27;;;;;;;5.23;1.90;;;10.40;99.90;9.60;96739.00;;;;5030535;28;20220;-85
2021/05/26 21:19:15;;;;;;;5.63;1.33;;;10.30;99.90;9.20;96739.00;;;;5011454;28;20209;-83
2021/05/26 21:22:05;;;;;;;1.83;1.73;;;10.30;99.90;9.20;96726.00;;;;5011239;28;20209;-83
2021/05/26 21:24:53;;;;;;;1.67;1.23;;;10.10;99.90;9.20;96729.00;;;;5010961;28;20198;-83
2021/05/26 21:27:42;;;;;;;3.33;1.17;;;10.00;99.90;9.20;96735.00;;;;5029955;28;20232;-83
2021/05/26 21:30:30;;;;;;;1.60;1.50;;;9.90;99.90;8.90;96739.00;;;;5029293;28;20613;-83
2021/05/26 21:33:18;;;;;;;3.23;1.43;;;9.80;99.90;8.60;96744.00;;;;5028602;28;20704;-84
2021/05/26 21:36:07;;;;;;;2.00;1.57;;;9.70;99.90;8.80;96746.00;;;;5029572;28;20205;-84
2021/05/26 21:38:56;;;;;;;3.60;1.13;;;9.60;99.90;8.70;96734.00;;;;5009349;28;20729;-84
2021/05/26 21:41:45;;;;;;;1.97;1.47;;;9.50;99.90;8.80;96734.00;;;;5029546;28;20561;-83
2021/05/26 21:44:33;;;;;;;1.97;1.27;;;9.50;99.90;8.70;96747.00;;;;5018942;28;20216;-83
2021/05/26 21:47:21;;;;;;;1.20;1.10;;;9.40;99.90;8.50;96748.00;;;;5030198;28;20599;-83
2021/05/26 21:50:14;;;;;;;1.33;1.23;;;9.40;99.90;8.40;96748.00;;;;5027131;28;20236;-85
2021/05/26 21:53:03;;;;;;;2.40;1.23;;;9.30;99.90;8.60;96748.00;;;;5009774;28;20201;-84
2021/05/26 21:55:52;;;;;;;1.87;1.10;;;9.20;99.90;8.60;96739.00;;;;5028991;28;20213;-86
2021/05/26 21:58:40;;;;;;;2.30;2.10;;;9.30;99.90;8.60;96748.00;;;;5009996;28;20245;-84
2021/05/26 22:01:29;;;;;;;1.83;1.30;;;9.20;99.90;8.50;96749.00;;;;5029298;28;20202;-84
2021/05/26 22:04:17;;;;;;;5.83;1.57;;;9.30;99.90;8.30;96735.00;;;;5029470;28;20595;-84
2021/05/26 22:07:06;;;;;;;2.00;1.40;;;9.20;99.90;8.10;96742.00;;;;5030285;28;20254;-84
2021/05/26 22:09:54;;;;;;;1.50;1.40;;;9.10;99.90;8.10;96745.00;;;;5009497;28;20663;-84
2021/05/26 22:12:48;;;;;;;2.83;1.60;;;9.00;99.90;8.10;96747.00;;;;5010700;28;20202;-84
2021/05/26 22:15:38;;;;;;;4.27;1.60;;;8.90;99.90;7.90;96748.00;;;;5029193;28;20212;-85
2021/05/26 22:18:29;;;;;;;4.77;1.73;;;8.80;99.90;7.80;96744.00;;;;5028892;28;20233;-86
2021/05/26 22:21:18;;;;;;;1.60;1.50;;;8.70;99.90;7.80;96740.00;;;;5028576;28;20212;-84
2021/05/26 22:24:08;;;;;;;3.50;1.37;;;8.60;99.90;7.70;96746.00;;;;5028232;28;20219;-84
2021/05/26 22:26:56;;;;;;;2.20;2.00;;;8.60;99.90;7.70;96748.00;;;;5009144;28;20206;-83
2021/05/26 22:29:45;;;;;;;2.23;1.60;;;8.50;99.90;7.90;96749.00;;;;5010846;28;20202;-84
2021/05/26 22:32:34;;;;;;;1.33;1.23;;;8.50;99.90;8.10;96758.00;;;;5029619;28;20223;-84
2021/05/26 22:35:23;;;;;;;1.60;1.50;;;8.60;99.90;8.10;96747.00;;;;5009708;28;20709;-84
2021/05/26 22:38:11;;;;;;;1.73;1.63;;;8.60;99.90;8.10;96751.00;;;;5029095;28;20233;-84
2021/05/26 22:40:59;;;;;;;1.40;1.30;;;8.70;99.90;8.00;96745.00;;;;5009862;28;20576;-85
2021/05/26 22:43:48;;;;;;;1.57;1.47;;;8.70;99.90;7.80;96744.00;;;;5009824;28;20202;-83
2021/05/26 22:46:50;;;;;;;2.03;1.80;;;8.70;99.90;7.70;96753.00;;;;5010791;28;20202;-84
2021/05/26 22:49:38;;;;;;;2.03;1.63;;;8.50;99.90;7.80;96758.00;;;;5027700;28;20202;-83
2021/05/26 22:52:26;;;;;;;4.63;1.83;;;8.50;99.90;7.80;96746.00;;;;4997475;28;20209;-85
2021/05/26 22:55:16;;;;;;;2.20;1.90;;;8.50;99.90;7.80;96739.00;;;;5009350;28;20694;-85
2021/05/26 22:58:05;;;;;;;1.93;1.63;;;8.50;99.90;8.00;96734.00;;;;5029621;28;20221;-84
2021/05/26 23:00:54;;;;;;;1.57;1.30;;;8.50;99.90;8.00;96745.00;;;;5010505;28;20575;-82
2021/05/26 23:03:45;;;;;;;1.50;1.33;;;8.60;99.90;7.70;96730.00;;;;5011104;28;20202;-85
2021/05/26 23:06:34;;;;;;;1.40;1.30;;;8.60;99.90;7.20;96729.00;;;;5030333;28;20649;-85
2021/05/26 23:09:22;;;;;;;3.37;1.67;;;8.40;99.90;7.20;96721.00;;;;5011579;28;20198;-86
2021/05/26 23:12:11;;;;;;;3.43;1.70;;;8.20;99.90;7.10;96724.00;;;;5012441;28;20210;-84
2021/05/26 23:14:59;;;;;;;3.17;2.13;;;8.10;99.90;7.20;96726.00;;;;5010933;28;20209;-85
2021/05/26 23:17:48;;;;;;;3.13;1.93;;;8.00;99.90;7.00;96725.00;;;;5029944;28;20236;-84
2021/05/26 23:20:37;;;;;;;3.47;1.90;;;8.00;99.90;7.20;96730.00;;;;5010417;28;20198;-85
2021/05/26 23:23:25;;;;;;;1.67;1.57;;;7.90;99.90;7.10;96731.00;;;;5030839;28;20588;-84
2021/05/26 23:26:14;;;;;;;3.63;2.33;;;7.90;99.90;7.20;96730.00;;;;5030627;28;20205;-85
2021/05/26 23:29:03;;;;;;;1.87;1.77;;;7.90;99.90;7.20;96725.00;;;;5032102;28;20209;-84
2021/05/26 23:31:51;;;;;;;2.00;1.70;;;7.90;99.90;7.00;96727.00;;;;5029784;28;20210;-84
2021/05/26 23:34:40;;;;;;;3.47;1.63;;;7.90;99.90;6.90;96732.00;;;;5009721;28;20584;-85
2021/05/26 23:37:29;;;;;;;2.40;2.20;;;7.80;99.90;6.80;96727.00;;;;5011547;28;20233;-83
2021/05/26 23:40:18;;;;;;;2.20;1.53;;;7.70;99.90;6.70;96733.00;;;;5028687;28;20205;-85
2021/05/26 23:43:07;;;;;;;1.77;1.53;;;7.60;99.90;6.80;96740.00;;;;5029086;28;20202;-84
2021/05/26 23:45:55;;;;;;;1.60;1.50;;;7.60;99.90;6.70;96743.00;;;;5010323;28;20202;-85
2021/05/26 23:48:43;;;;;;;3.13;1.70;;;7.60;99.90;6.60;96740.00;;;;5010290;28;20229;-85
2021/05/26 23:51:32;;;;;;;2.03;1.63;;;7.50;99.90;6.60;96751.00;;;;5021510;28;20213;-83
2021/05/26 23:54:21;;;;;;;4.37;1.83;;;7.50;99.90;6.70;96747.00;;;;5013181;28;20225;-82
2021/05/26 23:57:09;;;;;;;2.47;1.67;;;7.50;99.90;6.70;96752.00;;;;5014469;28;20245;-85
2021/05/26 23:59:58;;;;;;;1.53;1.40;;;7.50;99.90;6.90;96752.00;;;;5012377;28;20206;-84
